Time;durP1;ratioP1;P1;durP2;ratioP2;P2;SDS_P1;SDS_P2;PMS_P1;PMS_P2;Temp;Humidity;BMP_temperature;BMP_pressure;BME280_temperature;BME280_humidity;BME280_pressure;Samples;Min_cycle;Max_cycle;Signal;HPM_P1;HPM_P2
2023/05/21 00:01:38;;;;;;;109.67;3.07;;;19.80;43.50;;;;;;5077338;28;20394;-72
2023/05/21 00:04:06;;;;;;;109.90;3.30;;;19.80;44.00;;;;;;5076996;28;20406;-73
2023/05/21 00:06:34;;;;;;;110.03;3.43;;;19.70;43.70;;;;;;5077965;28;20419;-73
2023/05/21 00:09:01;;;;;;;109.97;3.50;;;19.70;44.30;;;;;;5077174;28;20408;-73
2023/05/21 00:11:26;;;;;;;111.37;3.73;;;19.60;45.10;;;;;;5076852;28;20904;-72
2023/05/21 00:13:52;;;;;;;109.73;3.23;;;19.60;44.70;;;;;;5076218;28;20415;-73
2023/05/21 00:16:17;;;;;;;111.17;3.80;;;19.60;44.80;;;;;;5076631;28;20238;-73
2023/05/21 00:18:44;;;;;;;110.77;3.80;;;19.50;44.60;;;;;;5076617;28;20202;-74
2023/05/21 00:21:11;;;;;;;110.37;3.60;;;19.60;44.60;;;;;;5077138;28;20539;-72
2023/05/21 00:23:38;;;;;;;110.67;3.60;;;19.60;44.70;;;;;;5075978;28;20808;-73
2023/05/21 00:26:04;;;;;;;110.57;4.00;;;19.60;43.70;;;;;;5076769;28;20424;-73
2023/05/21 00:28:29;;;;;;;109.83;3.50;;;19.70;43.60;;;;;;5076945;28;20856;-73
2023/05/21 00:30:55;;;;;;;109.83;3.37;;;19.80;42.80;;;;;;5076464;28;20168;-73
2023/05/21 00:33:21;;;;;;;111.07;3.80;;;19.80;43.20;;;;;;5072677;28;20185;-73
2023/05/21 00:35:47;;;;;;;109.50;3.20;;;19.80;42.10;;;;;;5072060;28;20295;-73
2023/05/21 00:38:13;;;;;;;110.27;3.87;;;19.80;42.90;;;;;;5075675;28;20457;-73
2023/05/21 00:40:40;;;;;;;110.30;3.90;;;19.70;43.00;;;;;;5075473;28;20651;-73
2023/05/21 00:43:08;;;;;;;109.97;3.60;;;19.60;43.30;;;;;;5074757;28;20502;-73
2023/05/21 00:45:35;;;;;;;109.73;3.37;;;19.60;43.40;;;;;;5074584;28;20522;-73
2023/05/21 00:48:03;;;;;;;110.27;3.70;;;19.70;42.60;;;;;;5076018;28;20440;-73
2023/05/21 00:50:29;;;;;;;109.37;3.10;;;19.60;42.90;;;;;;5074861;28;20413;-73
2023/05/21 00:52:55;;;;;;;110.00;3.67;;;19.50;43.30;;;;;;5075556;28;20928;-74
2023/05/21 00:55:21;;;;;;;110.67;3.70;;;19.40;43.90;;;;;;5074661;28;20783;-73
2023/05/21 00:57:48;;;;;;;109.77;3.40;;;19.40;44.60;;;;;;5073675;28;20452;-73
2023/05/21 01:00:15;;;;;;;110.47;3.90;;;19.50;44.70;;;;;;5073937;28;20263;-71
2023/05/21 01:02:42;;;;;;;110.07;3.57;;;19.50;43.20;;;;;;5071801;28;20415;-73
2023/05/21 01:05:09;;;;;;;109.90;3.43;;;19.50;43.70;;;;;;5072316;28;20814;-73
2023/05/21 01:07:37;;;;;;;110.30;3.80;;;19.40;43.70;;;;;;5070916;28;20435;-73
2023/05/21 01:10:06;;;;;;;109.60;3.20;;;19.40;43.60;;;;;;5070897;28;20477;-73
2023/05/21 01:12:33;;;;;;;109.77;3.37;;;19.30;44.10;;;;;;5071240;28;20454;-73
2023/05/21 01:15:01;;;;;;;109.77;3.47;;;19.30;44.60;;;;;;5071905;28;20405;-73
2023/05/21 01:17:29;;;;;;;110.17;3.53;;;19.30;44.30;;;;;;5077332;22;20506;-70
2023/05/21 01:19:59;;;;;;;110.10;3.47;;;19.20;44.80;;;;;;5052044;28;20449;-71
2023/05/21 01:22:31;;;;;;;110.70;4.07;;;19.30;44.30;;;;;;5051372;28;20455;-71
2023/05/21 01:24:57;;;;;;;109.50;3.03;;;19.20;44.10;;;;;;5051752;28;20417;-71
2023/05/21 01:27:23;;;;;;;110.97;3.70;;;19.20;44.50;;;;;;5051613;28;20424;-72
2023/05/21 01:29:49;;;;;;;110.00;3.50;;;19.10;45.00;;;;;;5049481;28;20421;-73
2023/05/21 01:32:21;;;;;;;111.60;3.53;;;19.10;45.20;;;;;;5047133;28;20453;-72
2023/05/21 01:35:05;;;;;;;109.70;3.33;;;19.10;45.20;;;;;;5043620;28;20409;-71
2023/05/21 01:37:42;;;;;;;110.47;3.63;;;19.20;45.30;;;;;;5051490;28;20513;-70
2023/05/21 01:40:27;;;;;;;110.47;3.37;;;19.20;44.20;;;;;;5051477;28;20481;-71
2023/05/21 01:42:53;;;;;;;112.37;3.80;;;19.20;44.80;;;;;;5051029;28;20395;-70
2023/05/21 01:45:21;;;;;;;110.70;3.93;;;19.10;45.00;;;;;;5051565;28;21133;-71
2023/05/21 01:47:49;;;;;;;110.77;3.50;;;19.00;45.50;;;;;;5051600;28;20638;-72
2023/05/21 01:50:17;;;;;;;110.27;3.43;;;19.10;45.50;;;;;;5051784;28;20414;-71
2023/05/21 01:52:51;;;;;;;113.20;4.57;;;19.20;44.50;;;;;;5050919;28;20413;-70
2023/05/21 01:55:18;;;;;;;111.07;3.60;;;19.00;44.30;;;;;;5051528;28;20752;-70
2023/05/21 01:57:44;;;;;;;111.10;3.50;;;19.00;44.90;;;;;;5051366;28;20496;-71
2023/05/21 02:00:11;;;;;;;111.00;3.57;;;19.00;44.90;;;;;;5051598;28;20502;-71
2023/05/21 02:02:37;;;;;;;113.47;3.63;;;19.10;44.30;;;;;;5050668;28;20418;-70
2023/05/21 02:05:02;;;;;;;114.00;3.50;;;19.00;44.80;;;;;;5051517;28;20410;-71
2023/05/21 02:07:31;;;;;;;114.10;3.70;;;19.00;45.00;;;;;;5051694;28;20667;-70
2023/05/21 02:09:57;;;;;;;113.77;3.57;;;18.90;44.70;;;;;;5055311;28;20218;-70
2023/05/21 02:12:22;;;;;;;113.30;3.30;;;18.90;45.10;;;;;;5054770;28;20490;-70
2023/05/21 02:14:49;;;;;;;113.27;3.30;;;18.70;45.50;;;;;;5054634;28;20201;-71
2023/05/21 02:17:16;;;;;;;112.80;3.60;;;18.70;45.90;;;;;;5053864;28;20222;-70
2023/05/21 02:19:43;;;;;;;111.97;3.73;;;18.80;45.40;;;;;;5054912;28;20456;-70
2023/05/21 02:22:10;;;;;;;114.13;4.37;;;18.80;45.00;;;;;;5054972;28;20399;-70
2023/05/21 02:24:35;;;;;;;112.87;3.37;;;18.80;45.10;;;;;;5054502;28;20434;-70
2023/05/21 02:27:01;;;;;;;113.13;3.87;;;18.80;45.30;;;;;;5053576;28;20491;-70
2023/05/21 02:29:27;;;;;;;112.40;3.33;;;18.90;44.40;;;;;;5054858;28;20168;-70
2023/05/21 02:31:53;;;;;;;113.20;3.57;;;18.90;44.70;;;;;;5054804;28;20410;-70
2023/05/21 02:34:23;;;;;;;113.17;3.60;;;18.70;45.20;;;;;;5052977;28;20422;-70
2023/05/21 02:36:52;;;;;;;115.07;4.37;;;18.70;45.20;;;;;;5055375;28;20187;-71
2023/05/21 02:39:19;;;;;;;113.23;4.23;;;18.70;45.50;;;;;;5053174;28;20843;-73
2023/05/21 02:41:46;;;;;;;112.90;4.00;;;18.60;45.90;;;;;;5053292;28;20414;-71
2023/05/21 02:44:13;;;;;;;112.13;3.50;;;18.50;46.00;;;;;;5052718;28;21214;-70
2023/05/21 02:46:39;;;;;;;112.37;3.60;;;18.60;46.60;;;;;;5055064;28;20430;-73
2023/05/21 02:49:05;;;;;;;112.00;3.63;;;18.60;45.30;;;;;;5059125;28;20436;-71
2023/05/21 02:51:31;;;;;;;111.90;3.57;;;18.60;45.50;;;;;;5059187;28;20479;-73
2023/05/21 02:53:57;;;;;;;111.87;3.27;;;18.50;46.30;;;;;;5058149;28;20168;-71
2023/05/21 02:56:22;;;;;;;111.77;3.60;;;18.60;45.50;;;;;;5057367;28;20228;-70
2023/05/21 02:58:48;;;;;;;111.70;3.47;;;18.40;45.80;;;;;;5058856;28;20287;-70
2023/05/21 03:01:13;;;;;;;113.97;4.10;;;18.40;45.40;;;;;;5059624;28;20179;-70
2023/05/21 03:03:39;;;;;;;112.70;3.60;;;18.30;46.30;;;;;;5058600;28;20176;-70
2023/05/21 03:06:05;;;;;;;111.60;3.57;;;18.30;46.10;;;;;;5059472;28;20194;-70
2023/05/21 03:08:31;;;;;;;114.33;4.40;;;18.50;45.70;;;;;;5059637;28;20410;-73
2023/05/21 03:10:56;;;;;;;111.70;3.20;;;18.50;44.90;;;;;;5059365;28;20185;-71
2023/05/21 03:13:22;;;;;;;111.97;3.80;;;18.30;45.50;;;;;;5058485;28;20180;-70
2023/05/21 03:15:48;;;;;;;112.20;3.50;;;18.30;45.70;;;;;;5058714;28;20547;-70
2023/05/21 03:18:13;;;;;;;112.27;3.67;;;18.20;46.30;;;;;;5060020;28;20357;-71
2023/05/21 03:20:42;;;;;;;111.73;3.50;;;18.30;45.60;;;;;;5057663;28;20168;-71
2023/05/21 03:23:08;;;;;;;112.00;3.80;;;18.20;46.70;;;;;;5058613;28;20200;-71
2023/05/21 03:25:35;;;;;;;112.57;3.93;;;18.30;46.30;;;;;;5058598;28;20423;-71
2023/05/21 03:28:01;;;;;;;111.57;3.10;;;18.30;46.10;;;;;;5059078;28;20428;-72
2023/05/21 03:30:26;;;;;;;112.00;3.73;;;18.30;46.00;;;;;;5058454;28;20412;-72
2023/05/21 03:32:52;;;;;;;111.27;2.90;;;18.20;46.60;;;;;;5058436;28;20467;-71
2023/05/21 03:35:18;;;;;;;111.77;3.10;;;18.40;45.20;;;;;;5058794;28;20654;-72
2023/05/21 03:37:45;;;;;;;111.97;3.73;;;18.30;45.60;;;;;;5058261;28;20200;-72
2023/05/21 03:40:11;;;;;;;112.13;3.70;;;18.20;45.90;;;;;;5053103;28;20229;-72
2023/05/21 03:42:37;;;;;;;111.80;3.40;;;18.30;46.00;;;;;;5056039;28;20514;-72
2023/05/21 03:45:03;;;;;;;111.17;3.17;;;18.30;46.50;;;;;;5057178;28;20508;-72
2023/05/21 03:47:28;;;;;;;111.67;3.33;;;18.40;45.90;;;;;;5058784;28;20270;-72
2023/05/21 03:49:54;;;;;;;112.53;3.80;;;18.30;45.40;;;;;;5057845;28;20455;-72
2023/05/21 03:52:20;;;;;;;112.60;3.80;;;18.30;45.60;;;;;;5057650;28;20176;-72
2023/05/21 03:54:45;;;;;;;111.07;3.20;;;18.20;47.50;;;;;;5057545;28;20628;-72
2023/05/21 03:57:11;;;;;;;112.60;4.13;;;18.20;46.30;;;;;;5056022;28;20192;-72
2023/05/21 03:59:37;;;;;;;112.10;3.67;;;18.20;46.60;;;;;;5055711;28;20538;-72
2023/05/21 04:02:04;;;;;;;111.70;3.40;;;18.10;46.40;;;;;;5056250;28;20244;-72
2023/05/21 04:04:30;;;;;;;112.80;3.93;;;18.20;46.60;;;;;;5055408;28;20421;-72
2023/05/21 04:06:55;;;;;;;111.47;3.27;;;18.20;46.50;;;;;;5055706;28;20430;-72
2023/05/21 04:09:21;;;;;;;111.93;3.47;;;18.20;46.40;;;;;;5057556;28;20973;-72
2023/05/21 04:11:47;;;;;;;111.67;3.47;;;18.00;46.50;;;;;;5054936;28;20181;-72
2023/05/21 04:14:13;;;;;;;111.37;3.33;;;18.00;46.60;;;;;;5053585;28;20178;-72
2023/05/21 04:16:38;;;;;;;111.50;3.57;;;18.10;46.80;;;;;;5055228;28;20215;-72
2023/05/21 04:19:05;;;;;;;112.07;4.00;;;18.10;47.40;;;;;;5056574;28;20694;-72
2023/05/21 04:21:31;;;;;;;110.83;3.00;;;18.20;47.10;;;;;;5056402;28;20168;-71
2023/05/21 04:23:57;;;;;;;111.97;3.73;;;18.20;46.60;;;;;;5054244;28;20816;-72
2023/05/21 04:26:24;;;;;;;111.23;3.20;;;18.30;46.80;;;;;;5055398;28;20675;-72
2023/05/21 04:28:49;;;;;;;112.20;3.57;;;18.30;46.30;;;;;;5055598;28;20409;-72
2023/05/21 04:31:15;;;;;;;112.07;3.50;;;18.20;46.80;;;;;;5054464;28;20472;-72
2023/05/21 04:33:44;;;;;;;112.50;3.90;;;18.20;46.80;;;;;;5054481;28;20401;-72
2023/05/21 04:36:11;;;;;;;111.63;3.70;;;18.20;47.10;;;;;;5054294;28;20194;-72
2023/05/21 04:38:37;;;;;;;111.30;3.17;;;18.30;46.20;;;;;;5054307;28;20456;-72
2023/05/21 04:41:03;;;;;;;111.50;3.37;;;18.30;46.10;;;;;;5054020;28;20776;-72
2023/05/21 04:43:28;;;;;;;111.90;3.13;;;18.40;47.10;;;;;;5054103;28;20491;-72
2023/05/21 04:45:57;;;;;;;111.47;3.23;;;18.40;46.60;;;;;;5054027;28;20630;-72
2023/05/21 04:48:24;;;;;;;111.67;3.40;;;18.40;46.70;;;;;;5053879;28;20174;-72
2023/05/21 04:50:50;;;;;;;111.57;3.63;;;18.40;46.80;;;;;;5051311;28;20421;-72
2023/05/21 04:53:16;;;;;;;111.30;3.20;;;18.50;46.70;;;;;;5052071;28;20438;-72
2023/05/21 04:55:42;;;;;;;112.67;3.50;;;18.30;47.50;;;;;;5052420;28;20411;-72
2023/05/21 04:58:10;;;;;;;111.30;3.43;;;18.40;47.60;;;;;;5052215;28;20562;-72
2023/05/21 05:00:36;;;;;;;112.37;3.70;;;18.50;46.90;;;;;;5052220;28;20258;-72
2023/05/21 05:03:03;;;;;;;111.37;3.20;;;18.60;47.00;;;;;;5050243;28;20414;-72
2023/05/21 05:05:29;;;;;;;111.30;3.10;;;18.70;46.90;;;;;;5050714;28;20796;-72
2023/05/21 05:07:56;;;;;;;111.33;3.10;;;18.60;46.80;;;;;;5050653;28;20434;-72
2023/05/21 05:10:21;;;;;;;111.67;3.10;;;18.70;46.70;;;;;;5050473;28;20177;-73
2023/05/21 05:12:47;;;;;;;112.20;4.00;;;18.80;46.30;;;;;;5051392;28;20751;-72
2023/05/21 05:15:13;;;;;;;111.67;3.37;;;18.80;46.80;;;;;;5051894;28;20210;-72
2023/05/21 05:17:39;;;;;;;112.17;3.37;;;18.70;47.20;;;;;;5051591;28;20474;-72
2023/05/21 05:20:07;;;;;;;112.07;3.50;;;18.80;46.50;;;;;;5051647;28;20206;-72
2023/05/21 05:22:33;;;;;;;112.80;3.90;;;18.80;45.10;;;;;;5051380;28;20234;-73
2023/05/21 05:24:58;;;;;;;113.43;3.80;;;18.90;45.00;;;;;;5051716;28;20408;-72
2023/05/21 05:27:24;;;;;;;111.30;3.23;;;19.00;46.00;;;;;;5051794;28;20632;-72
2023/05/21 05:29:50;;;;;;;112.23;3.73;;;19.10;45.80;;;;;;5051833;28;20186;-72
2023/05/21 05:32:15;;;;;;;111.40;3.30;;;19.10;46.00;;;;;;5051574;28;20176;-72
2023/05/21 05:34:41;;;;;;;112.07;4.00;;;19.10;46.60;;;;;;5051592;28;20222;-73
2023/05/21 05:37:07;;;;;;;113.40;3.47;;;19.10;46.00;;;;;;5051764;28;20282;-73
2023/05/21 05:39:33;;;;;;;111.70;3.47;;;19.10;45.00;;;;;;5051618;28;20454;-73
2023/05/21 05:41:59;;;;;;;112.77;3.77;;;19.10;43.80;;;;;;5051579;28;20253;-73
2023/05/21 05:44:24;;;;;;;112.00;3.57;;;19.30;44.70;;;;;;5054767;28;20174;-73
2023/05/21 05:46:50;;;;;;;112.67;4.00;;;19.40;44.60;;;;;;5054145;28;20539;-73
2023/05/21 05:49:16;;;;;;;113.50;4.00;;;19.50;44.80;;;;;;5054329;28;20204;-73
2023/05/21 05:51:42;;;;;;;111.70;3.40;;;19.60;44.30;;;;;;5055636;28;20548;-74
2023/05/21 05:54:08;;;;;;;112.73;3.60;;;19.70;45.30;;;;;;5053515;28;20506;-73
2023/05/21 05:56:33;;;;;;;112.90;4.27;;;19.60;44.40;;;;;;5055501;28;20702;-72
2023/05/21 05:58:59;;;;;;;112.30;3.47;;;19.30;44.40;;;;;;5055908;28;20208;-73
2023/05/21 06:01:25;;;;;;;112.97;4.00;;;19.30;45.60;;;;;;5055326;28;20166;-73
2023/05/21 06:03:51;;;;;;;112.30;3.47;;;19.10;45.10;;;;;;5054933;28;20266;-73
2023/05/21 06:06:17;;;;;;;112.10;3.63;;;18.80;46.70;;;;;;5055041;28;20537;-73
2023/05/21 06:08:43;;;;;;;113.30;4.30;;;19.10;47.10;;;;;;5055445;28;20439;-73
2023/05/21 06:11:09;;;;;;;112.07;3.63;;;19.20;46.20;;;;;;5055208;28;20178;-72
2023/05/21 06:13:35;;;;;;;112.13;3.30;;;19.50;45.60;;;;;;5054762;28;20412;-73
2023/05/21 06:16:02;;;;;;;112.50;3.90;;;19.70;44.90;;;;;;5054745;28;20847;-73
2023/05/21 06:18:27;;;;;;;112.30;3.60;;;19.50;44.50;;;;;;5055123;28;20835;-73
2023/05/21 06:20:53;;;;;;;113.20;4.03;;;19.50;44.10;;;;;;5055124;28;20408;-72
2023/05/21 06:23:18;;;;;;;112.70;3.90;;;19.30;45.10;;;;;;5054579;28;20178;-72
2023/05/21 06:25:44;;;;;;;113.57;4.17;;;19.50;44.50;;;;;;5054620;28;20179;-72
2023/05/21 06:28:09;;;;;;;113.07;4.30;;;19.90;43.90;;;;;;5054944;28;20190;-73
2023/05/21 06:30:35;;;;;;;112.53;3.60;;;19.80;43.10;;;;;;5054774;28;20242;-73
2023/05/21 06:33:01;;;;;;;111.90;3.20;;;20.00;43.00;;;;;;5054353;28;20534;-73
2023/05/21 06:35:27;;;;;;;112.97;3.80;;;19.50;44.60;;;;;;5055000;28;20171;-73
2023/05/21 06:37:53;;;;;;;112.40;3.80;;;19.30;45.30;;;;;;5053204;28;20203;-73
2023/05/21 06:40:19;;;;;;;112.10;3.73;;;18.90;46.70;;;;;;5054862;28;20467;-72
2023/05/21 06:42:45;;;;;;;112.50;3.60;;;18.80;47.20;;;;;;5051090;28;20441;-73
2023/05/21 06:45:11;;;;;;;112.30;3.80;;;18.50;49.10;;;;;;5054063;28;20452;-73
2023/05/21 06:47:37;;;;;;;112.30;3.67;;;19.20;46.70;;;;;;5052993;28;20852;-72
2023/05/21 06:50:03;;;;;;;111.70;3.47;;;19.10;47.30;;;;;;5054042;28;20421;-72
2023/05/21 06:52:30;;;;;;;112.60;3.97;;;18.80;47.90;;;;;;5057228;28;20172;-72
2023/05/21 06:54:56;;;;;;;112.07;3.60;;;18.80;49.10;;;;;;5054917;28;20448;-73
2023/05/21 06:57:22;;;;;;;112.07;3.60;;;18.90;48.10;;;;;;5055476;28;20528;-73
2023/05/21 06:59:48;;;;;;;112.60;3.87;;;18.90;48.50;;;;;;5054949;28;20662;-73
2023/05/21 07:02:16;;;;;;;112.00;3.90;;;18.90;48.70;;;;;;5054853;28;20459;-73
2023/05/21 07:04:42;;;;;;;111.27;3.37;;;19.00;48.40;;;;;;5053935;28;20164;-73
2023/05/21 07:07:08;;;;;;;112.80;4.60;;;19.20;46.30;;;;;;5055058;28;20426;-73
2023/05/21 07:09:36;;;;;;;111.70;3.57;;;19.20;47.20;;;;;;5054388;28;20260;-74
2023/05/21 07:12:03;;;;;;;112.60;3.80;;;19.50;45.60;;;;;;5053460;28;20414;-73
2023/05/21 07:14:29;;;;;;;113.07;4.33;;;19.50;46.40;;;;;;5054063;28;20408;-73
2023/05/21 07:16:54;;;;;;;112.33;3.47;;;19.40;46.20;;;;;;5055191;28;20461;-73
2023/05/21 07:19:22;;;;;;;111.97;3.73;;;19.70;45.10;;;;;;5051672;28;20465;-73
2023/05/21 07:21:48;;;;;;;111.57;3.67;;;20.30;43.10;;;;;;5052985;28;20782;-73
2023/05/21 07:24:16;;;;;;;112.70;3.80;;;20.20;43.10;;;;;;5051870;28;20403;-73
2023/05/21 07:26:42;;;;;;;111.90;3.80;;;20.70;43.80;;;;;;5055855;23;20479;-71
2023/05/21 07:29:08;;;;;;;112.10;3.77;;;20.50;42.10;;;;;;5051439;28;20418;-75
2023/05/21 07:31:34;;;;;;;112.17;4.00;;;21.00;42.50;;;;;;5051717;28;20548;-71
2023/05/21 07:34:00;;;;;;;112.17;4.13;;;21.10;41.30;;;;;;5051917;28;20645;-70
2023/05/21 07:36:26;;;;;;;113.40;3.90;;;21.70;39.80;;;;;;5045826;28;20630;-69
2023/05/21 07:38:51;;;;;;;111.87;3.70;;;22.10;39.50;;;;;;5053186;28;20511;-70
2023/05/21 07:41:17;;;;;;;111.93;3.73;;;22.50;37.50;;;;;;5051817;28;20304;-69
2023/05/21 07:43:43;;;;;;;111.60;3.40;;;21.50;39.30;;;;;;5052531;28;20171;-70
2023/05/21 07:46:08;;;;;;;112.00;3.80;;;21.20;40.40;;;;;;5052585;28;20665;-71
2023/05/21 07:48:34;;;;;;;113.00;3.73;;;21.80;38.70;;;;;;5050795;28;20186;-71
2023/05/21 07:51:00;;;;;;;112.10;3.63;;;21.50;39.60;;;;;;5052604;28;20175;-72
2023/05/21 07:53:25;;;;;;;114.03;3.90;;;22.00;38.10;;;;;;5052509;28;20175;-71
2023/05/21 07:55:51;;;;;;;111.67;3.80;;;21.90;38.30;;;;;;5052709;28;20619;-72
2023/05/21 07:58:18;;;;;;;111.80;3.97;;;21.30;39.30;;;;;;5052662;28;20292;-72
2023/05/21 08:00:46;;;;;;;111.17;3.67;;;21.70;38.90;;;;;;5052821;28;20574;-71
2023/05/21 08:03:15;;;;;;;110.80;3.27;;;21.00;39.50;;;;;;5052611;28;20753;-73
2023/05/21 08:05:43;;;;;;;112.30;4.10;;;21.10;41.10;;;;;;5051968;28;20448;-73
2023/05/21 08:08:09;;;;;;;112.07;3.97;;;22.00;39.10;;;;;;5053001;28;20498;-72
2023/05/21 08:10:36;;;;;;;111.10;3.53;;;22.10;39.40;;;;;;5051889;28;20433;-73
2023/05/21 08:13:01;;;;;;;110.97;3.73;;;21.90;38.10;;;;;;5051255;28;20426;-73
2023/05/21 08:15:27;;;;;;;112.27;4.17;;;22.10;39.00;;;;;;5051946;28;20437;-73
2023/05/21 08:17:52;;;;;;;110.57;3.00;;;22.60;40.50;;;;;;5052247;28;20199;-73
2023/05/21 08:20:19;;;;;;;110.70;3.50;;;22.40;37.50;;;;;;5053115;28;20702;-73
2023/05/21 08:22:44;;;;;;;111.20;3.67;;;21.90;38.50;;;;;;5052291;28;20623;-72
2023/05/21 08:25:10;;;;;;;112.50;4.33;;;21.70;40.30;;;;;;5052175;28;20419;-73
2023/05/21 08:27:36;;;;;;;110.47;3.23;;;21.80;39.50;;;;;;5052556;28;20176;-73
2023/05/21 08:30:01;;;;;;;111.40;3.80;;;22.50;39.40;;;;;;5052635;28;20169;-72
2023/05/21 08:32:27;;;;;;;111.53;4.10;;;23.00;37.50;;;;;;5052344;28;20247;-73
2023/05/21 08:34:52;;;;;;;112.90;4.43;;;23.10;36.10;;;;;;5051785;28;20704;-71
2023/05/21 08:37:20;;;;;;;111.90;4.50;;;23.60;35.40;;;;;;5050927;28;20228;-71
2023/05/21 08:39:46;;;;;;;116.03;4.40;;;23.40;35.60;;;;;;5051028;28;20229;-73
2023/05/21 08:42:45;;;;;;;112.17;4.37;;;23.60;36.60;;;;;;5052072;28;20753;-73
2023/05/21 08:45:13;;;;;;;111.93;3.80;;;23.60;34.90;;;;;;5052213;28;20579;-72
2023/05/21 08:47:42;;;;;;;112.17;4.07;;;22.60;37.00;;;;;;5052094;28;20457;-73
2023/05/21 08:50:19;;;;;;;111.60;4.10;;;22.60;37.80;;;;;;5050677;28;20762;-71
2023/05/21 08:52:45;;;;;;;111.37;3.90;;;23.30;36.90;;;;;;5051508;28;20390;-71
2023/05/21 08:55:11;;;;;;;111.40;3.83;;;23.70;36.70;;;;;;5050913;28;20459;-71
2023/05/21 08:57:42;;;;;;;111.67;4.33;;;24.30;33.80;;;;;;5051813;28;20398;-71
2023/05/21 09:00:08;;;;;;;111.37;3.80;;;24.20;34.80;;;;;;5051822;28;20497;-70
2023/05/21 09:02:35;;;;;;;111.57;4.33;;;23.80;35.00;;;;;;5051136;28;20401;-72
2023/05/21 09:05:02;;;;;;;110.80;3.63;;;24.00;36.80;;;;;;5051473;28;20409;-72
2023/05/21 09:07:30;;;;;;;111.13;3.70;;;24.20;33.50;;;;;;5050441;28;20941;-71
2023/05/21 09:10:01;;;;;;;111.73;3.90;;;23.40;34.90;;;;;;5051806;28;20403;-71
2023/05/21 09:12:27;;;;;;;112.27;4.63;;;23.00;36.30;;;;;;5051808;28;20889;-71
2023/05/21 09:14:53;;;;;;;111.67;4.20;;;22.70;36.40;;;;;;5051160;28;20917;-71
2023/05/21 09:17:19;;;;;;;111.60;4.20;;;22.70;37.40;;;;;;5051491;28;20445;-72
2023/05/21 09:20:13;;;;;;;111.47;4.03;;;23.70;36.40;;;;;;5054561;28;20290;-72
2023/05/21 09:22:49;;;;;;;111.00;3.80;;;24.20;33.20;;;;;;5053824;28;20788;-71
2023/05/21 09:25:23;;;;;;;111.03;4.03;;;23.40;34.60;;;;;;5055633;28;20390;-72
2023/05/21 09:27:49;;;;;;;111.33;4.03;;;23.90;34.80;;;;;;5055485;28;20411;-72
2023/05/21 09:30:16;;;;;;;111.07;3.90;;;24.50;34.40;;;;;;5055426;28;20402;-72
2023/05/21 09:32:43;;;;;;;112.00;4.23;;;24.60;34.60;;;;;;5055006;28;20409;-72
2023/05/21 09:35:09;;;;;;;110.07;3.40;;;24.40;34.20;;;;;;5055188;28;20437;-72
2023/05/21 09:37:43;;;;;;;111.90;4.27;;;24.50;34.50;;;;;;5055363;28;20827;-72
2023/05/21 09:40:20;;;;;;;111.13;4.07;;;24.90;33.00;;;;;;5055721;28;20512;-72
2023/05/21 09:42:51;;;;;;;111.53;4.10;;;25.40;32.60;;;;;;5054672;28;20417;-71
2023/05/21 09:45:22;;;;;;;111.47;3.80;;;25.80;31.70;;;;;;5055720;28;20441;-71
2023/05/21 09:47:49;;;;;;;111.00;3.60;;;25.90;31.20;;;;;;5055179;28;20913;-71
2023/05/21 09:50:19;;;;;;;113.20;4.07;;;25.90;30.90;;;;;;5055269;28;20420;-71
2023/05/21 09:52:45;;;;;;;110.73;3.80;;;25.90;31.70;;;;;;5052820;28;20436;-71
2023/05/21 09:55:12;;;;;;;111.60;3.63;;;25.50;32.40;;;;;;5055273;28;20418;-71
2023/05/21 09:57:42;;;;;;;110.70;3.70;;;25.90;32.00;;;;;;5054938;28;20627;-72
2023/05/21 10:00:16;;;;;;;111.47;4.10;;;26.10;30.90;;;;;;5055004;28;20891;-70
2023/05/21 10:02:45;;;;;;;111.93;4.20;;;26.00;30.00;;;;;;5054244;28;20394;-71
2023/05/21 10:05:13;;;;;;;110.50;3.63;;;26.00;30.60;;;;;;5054784;28;20406;-71
2023/05/21 10:07:42;;;;;;;118.73;3.33;;;26.20;31.60;;;;;;5053771;28;20901;-71
2023/05/21 10:10:12;;;;;;;113.57;4.50;;;26.50;31.40;;;;;;5054892;28;20394;-71
2023/05/21 10:12:43;;;;;;;110.20;3.90;;;26.50;29.10;;;;;;5052863;28;20851;-71
2023/05/21 10:15:14;;;;;;;110.27;3.67;;;26.50;30.00;;;;;;5054730;28;20485;-70
2023/05/21 10:17:40;;;;;;;111.17;4.20;;;26.70;29.70;;;;;;5054437;28;20481;-71
2023/05/21 10:20:09;;;;;;;110.93;3.77;;;26.60;29.00;;;;;;5054645;28;20406;-71
2023/05/21 10:22:36;;;;;;;112.57;4.50;;;26.70;29.90;;;;;;5053892;28;20410;-71
2023/05/21 10:25:02;;;;;;;111.43;3.67;;;26.80;28.90;;;;;;5054510;28;20897;-70
2023/05/21 10:27:29;;;;;;;110.70;3.43;;;27.00;29.20;;;;;;5054383;28;20520;-71
2023/05/21 10:29:58;;;;;;;111.53;4.23;;;26.90;29.10;;;;;;5054521;28;20415;-71
2023/05/21 10:32:26;;;;;;;110.77;3.57;;;26.60;29.00;;;;;;5052548;28;20422;-71
2023/05/21 10:34:56;;;;;;;111.80;3.43;;;26.50;29.00;;;;;;5053767;28;20406;-71
2023/05/21 10:37:28;;;;;;;112.23;4.40;;;26.50;29.50;;;;;;5054347;28;20430;-73
2023/05/21 10:39:55;;;;;;;111.10;3.83;;;26.90;29.00;;;;;;5054122;28;20457;-74
2023/05/21 10:42:51;;;;;;;112.00;3.93;;;26.70;28.60;;;;;;5054364;28;20528;-74
2023/05/21 10:45:22;;;;;;;111.00;3.63;;;26.90;29.40;;;;;;5054136;28;20391;-73
2023/05/21 10:48:15;;;;;;;111.87;3.87;;;27.20;28.70;;;;;;5054082;28;20649;-73
2023/05/21 10:50:50;;;;;;;111.27;3.70;;;27.30;28.00;;;;;;5058517;28;20832;-73
2023/05/21 10:53:40;;;;;;;111.47;4.03;;;27.50;28.00;;;;;;5057862;28;20477;-73
2023/05/21 10:56:17;;;;;;;110.70;3.43;;;27.40;28.90;;;;;;5058304;28;20823;-73
2023/05/21 10:59:24;;;;;;;109.90;3.03;;;27.60;28.00;;;;;;5057019;28;20465;-73
2023/05/21 11:01:54;;;;;;;110.50;3.50;;;27.70;28.70;;;;;;5055548;28;20540;-73
2023/05/21 11:04:25;;;;;;;110.33;3.30;;;27.50;27.30;;;;;;5056337;28;20415;-73
2023/05/21 11:06:51;;;;;;;110.67;3.70;;;27.30;29.10;;;;;;5055607;28;20462;-71
2023/05/21 11:09:17;;;;;;;110.93;3.70;;;27.60;28.50;;;;;;5054384;28;20841;-71
2023/05/21 11:12:01;;;;;;;111.80;4.13;;;27.40;27.90;;;;;;5056474;28;20168;-73
2023/05/21 11:14:33;;;;;;;110.47;3.67;;;28.00;27.30;;;;;;5053997;28;20638;-73
2023/05/21 11:17:00;;;;;;;110.53;3.77;;;28.10;26.30;;;;;;5056216;28;20437;-72
2023/05/21 11:19:50;;;;;;;110.80;3.77;;;28.10;26.40;;;;;;5056342;28;20457;-73
2023/05/21 11:22:19;;;;;;;111.30;4.00;;;27.70;27.60;;;;;;5056245;28;20386;-73
2023/05/21 11:24:44;;;;;;;111.00;3.73;;;28.30;27.30;;;;;;5055793;28;20915;-73
2023/05/21 11:27:11;;;;;;;110.57;3.73;;;28.60;26.80;;;;;;5056012;28;20465;-74
2023/05/21 11:29:39;;;;;;;110.00;3.50;;;29.00;26.30;;;;;;5054177;28;20175;-73
2023/05/21 11:32:09;;;;;;;110.00;3.60;;;29.60;25.30;;;;;;5055529;28;20417;-71
2023/05/21 11:34:45;;;;;;;110.70;3.60;;;29.40;24.80;;;;;;5055280;28;20453;-73
2023/05/21 11:37:22;;;;;;;110.20;3.40;;;29.40;24.60;;;;;;5055828;28;20437;-72
2023/05/21 11:39:48;;;;;;;111.57;4.20;;;29.60;25.00;;;;;;5055695;28;20461;-71
2023/05/21 11:42:33;;;;;;;110.67;3.57;;;29.40;25.20;;;;;;5055112;28;20414;-71
2023/05/21 11:45:00;;;;;;;109.97;3.17;;;29.70;24.80;;;;;;5055686;28;20755;-71
2023/05/21 11:47:27;;;;;;;111.17;3.93;;;29.80;24.90;;;;;;5054100;28;20539;-72
2023/05/21 11:49:54;;;;;;;112.50;4.50;;;30.20;22.80;;;;;;5055106;28;20496;-71
2023/05/21 11:52:20;;;;;;;110.27;3.53;;;30.30;23.80;;;;;;5056001;28;20409;-71
2023/05/21 11:54:49;;;;;;;110.50;3.20;;;30.50;22.10;;;;;;5055320;28;20410;-71
2023/05/21 11:57:17;;;;;;;110.73;3.63;;;30.10;24.30;;;;;;5055153;28;20191;-72
2023/05/21 11:59:43;;;;;;;111.17;3.90;;;30.00;22.60;;;;;;5053362;28;20561;-72
2023/05/21 12:02:12;;;;;;;110.70;3.53;;;29.90;23.30;;;;;;5054473;28;20432;-71
2023/05/21 12:04:38;;;;;;;110.77;3.53;;;29.80;23.50;;;;;;5054456;28;20398;-71
2023/05/21 12:07:07;;;;;;;109.47;2.97;;;29.90;23.90;;;;;;5055848;28;21005;-71
2023/05/21 12:09:47;;;;;;;109.30;3.00;;;30.20;22.40;;;;;;5056639;28;20251;-71
2023/05/21 12:12:23;;;;;;;110.00;3.13;;;29.80;21.70;;;;;;5057130;28;20398;-71
2023/05/21 12:14:50;;;;;;;109.83;3.30;;;29.90;21.50;;;;;;5054451;28;20840;-71
2023/05/21 12:17:17;;;;;;;109.77;3.10;;;30.00;22.30;;;;;;5054648;28;20430;-73
2023/05/21 12:19:43;;;;;;;110.60;3.37;;;30.00;23.00;;;;;;5055599;28;20461;-73
2023/05/21 12:22:09;;;;;;;110.07;3.30;;;30.40;22.10;;;;;;5056159;28;20414;-74
2023/05/21 12:24:36;;;;;;;109.30;3.27;;;30.20;21.10;;;;;;5055632;28;20406;-75
2023/05/21 12:27:08;;;;;;;109.13;3.10;;;29.90;21.20;;;;;;5055658;28;20207;-75
2023/05/21 12:29:35;;;;;;;109.90;3.53;;;29.30;22.10;;;;;;5055730;28;20395;-74
2023/05/21 12:32:02;;;;;;;109.90;3.30;;;28.50;22.70;;;;;;5055645;28;20414;-74